createdAt,value
2022-10-15T00:00:53.913Z,977.77
2022-10-15T00:01:53.928Z,977.80
2022-10-15T00:02:53.883Z,977.78
2022-10-15T00:03:53.884Z,977.77
2022-10-15T00:04:53.844Z,977.78
2022-10-15T00:05:53.828Z,977.75
2022-10-15T00:06:53.834Z,977.75
2022-10-15T00:07:53.814Z,977.74
2022-10-15T00:08:53.841Z,977.74
2022-10-15T00:09:53.775Z,977.76
2022-10-15T00:10:53.765Z,977.67
2022-10-15T00:11:53.759Z,977.77
2022-10-15T00:12:53.800Z,977.72
2022-10-15T00:13:53.757Z,977.68
2022-10-15T00:14:53.756Z,977.68
2022-10-15T00:15:53.711Z,977.72
2022-10-15T00:16:53.747Z,977.64
2022-10-15T00:17:53.703Z,977.63
2022-10-15T00:18:53.707Z,977.67
2022-10-15T00:19:53.677Z,977.62
2022-10-15T00:20:53.707Z,977.66
2022-10-15T00:21:53.696Z,977.64
2022-10-15T00:22:53.677Z,977.60
2022-10-15T00:23:53.630Z,977.61
2022-10-15T00:24:53.650Z,977.66
2022-10-15T00:25:53.609Z,977.58
2022-10-15T00:26:53.599Z,977.63
2022-10-15T00:27:53.607Z,977.62
2022-10-15T00:28:53.727Z,977.56
2022-10-15T00:29:53.569Z,977.53
2022-10-15T00:30:53.647Z,977.55
2022-10-15T00:31:53.541Z,977.59
2022-10-15T00:32:53.557Z,977.59
2022-10-15T00:33:53.521Z,977.57
2022-10-15T00:34:53.520Z,977.59
2022-10-15T00:35:53.520Z,977.53
2022-10-15T00:36:53.477Z,977.51
2022-10-15T00:37:53.510Z,977.47
2022-10-15T00:38:53.492Z,977.47
2022-10-15T00:39:53.501Z,977.52
2022-10-15T00:40:53.462Z,977.60
2022-10-15T00:41:53.447Z,977.54
2022-10-15T00:42:53.433Z,977.53
2022-10-15T00:43:53.432Z,977.53
2022-10-15T00:44:53.403Z,977.49
2022-10-15T00:45:53.425Z,977.52
2022-10-15T00:46:53.403Z,977.52
2022-10-15T00:47:53.373Z,977.51
2022-10-15T00:48:53.398Z,977.50
2022-10-15T00:49:53.375Z,977.46
2022-10-15T00:50:53.341Z,977.44
2022-10-15T00:51:53.328Z,977.44
2022-10-15T00:52:53.335Z,977.41
2022-10-15T00:53:53.315Z,977.40
2022-10-15T00:54:53.314Z,977.49
2022-10-15T00:55:53.304Z,977.41
2022-10-15T00:56:53.295Z,977.46
2022-10-15T00:57:53.295Z,977.40
2022-10-15T00:58:53.276Z,977.43
2022-10-15T00:59:53.257Z,977.40
2022-10-15T01:00:53.299Z,977.32
2022-10-15T01:01:53.219Z,977.38
2022-10-15T01:02:53.207Z,977.41
2022-10-15T01:03:53.217Z,977.36
2022-10-15T01:04:53.216Z,977.33
2022-10-15T01:05:53.196Z,977.31
2022-10-15T01:06:53.179Z,977.34
2022-10-15T01:07:53.155Z,977.35
2022-10-15T01:08:53.156Z,977.28
2022-10-15T01:09:53.140Z,977.24
2022-10-15T01:10:53.158Z,977.29
2022-10-15T01:11:53.106Z,977.30
2022-10-15T01:12:53.105Z,977.28
2022-10-15T01:13:53.080Z,977.22
2022-10-15T01:14:53.066Z,977.27
2022-10-15T01:15:53.087Z,977.28
2022-10-15T01:16:53.047Z,977.24
2022-10-15T01:17:53.034Z,977.23
2022-10-15T01:18:53.046Z,977.23
2022-10-15T01:19:53.025Z,977.20
2022-10-15T01:20:53.008Z,977.20
2022-10-15T01:21:53.028Z,977.19
2022-10-15T01:22:52.987Z,977.20
2022-10-15T01:23:52.958Z,977.15
2022-10-15T01:24:52.980Z,977.15
2022-10-15T01:25:52.976Z,977.15
2022-10-15T01:26:52.962Z,977.16
2022-10-15T01:27:52.939Z,977.14
2022-10-15T01:28:53.002Z,977.16
2022-10-15T01:29:52.919Z,977.17
2022-10-15T01:30:52.910Z,977.23
2022-10-15T01:31:52.899Z,977.15
2022-10-15T01:32:52.891Z,977.25
2022-10-15T01:33:52.861Z,977.16
2022-10-15T01:34:52.890Z,977.13
2022-10-15T01:35:52.859Z,977.21
2022-10-15T01:36:52.832Z,977.16
2022-10-15T01:37:52.840Z,977.16
2022-10-15T01:38:53.881Z,977.15
2022-10-15T01:39:52.824Z,977.21
2022-10-15T01:40:52.827Z,977.19
2022-10-15T01:41:52.783Z,977.20
2022-10-15T01:42:52.770Z,977.16
2022-10-15T01:43:52.772Z,977.22
2022-10-15T01:44:52.764Z,977.14
2022-10-15T01:45:52.731Z,977.09
2022-10-15T01:46:52.744Z,977.09
2022-10-15T01:47:52.711Z,977.07
2022-10-15T01:48:52.705Z,977.12
2022-10-15T01:49:52.725Z,977.08
2022-10-15T01:50:52.694Z,977.08
2022-10-15T01:51:52.685Z,977.07
2022-10-15T01:52:52.682Z,977.01
2022-10-15T01:53:52.655Z,977.01
2022-10-15T01:54:52.655Z,977.04
2022-10-15T01:55:52.625Z,977.05
2022-10-15T01:56:52.647Z,976.99
2022-10-15T01:57:52.606Z,977.03
2022-10-15T01:58:52.626Z,976.97
2022-10-15T01:59:52.597Z,976.98
2022-10-15T02:00:52.617Z,976.98
2022-10-15T02:01:53.998Z,976.98
2022-10-15T02:02:52.589Z,976.93
2022-10-15T02:03:52.581Z,976.98
2022-10-15T02:04:52.578Z,977.02
2022-10-15T02:05:52.527Z,977.02
2022-10-15T02:06:52.518Z,977.03
2022-10-15T02:07:52.510Z,977.05
2022-10-15T02:08:52.508Z,977.03
2022-10-15T02:09:52.488Z,977.05
2022-10-15T02:10:52.491Z,977.04
2022-10-15T02:11:52.459Z,977.10
2022-10-15T02:12:52.460Z,977.02
2022-10-15T02:13:52.440Z,977.08
2022-10-15T02:14:52.450Z,977.05
2022-10-15T02:15:52.428Z,977.11
2022-10-15T02:16:52.411Z,977.02
2022-10-15T02:17:52.400Z,977.07
2022-10-15T02:18:52.400Z,977.07
2022-10-15T02:19:52.409Z,977.05
2022-10-15T02:20:52.391Z,976.97
2022-10-15T02:21:52.341Z,977.05
2022-10-15T02:22:52.360Z,977.01
2022-10-15T02:23:52.344Z,977.06
2022-10-15T02:24:55.385Z,977.04
2022-10-15T02:25:52.302Z,977.14
2022-10-15T02:26:52.323Z,977.04
2022-10-15T02:27:52.281Z,977.19
2022-10-15T02:28:52.328Z,977.17
2022-10-15T02:29:52.285Z,977.21
2022-10-15T02:30:52.294Z,977.06
2022-10-15T02:31:52.253Z,977.09
2022-10-15T02:32:52.242Z,977.07
2022-10-15T02:33:52.234Z,977.06
2022-10-15T02:34:52.214Z,977.15
2022-10-15T02:35:52.204Z,977.13
2022-10-15T02:36:52.202Z,977.12
2022-10-15T02:37:52.195Z,977.17
2022-10-15T02:38:52.174Z,977.20
2022-10-15T02:39:52.176Z,977.22
2022-10-15T02:40:52.143Z,977.12
2022-10-15T02:41:52.146Z,977.14
2022-10-15T02:42:52.137Z,977.24
2022-10-15T02:43:52.127Z,977.17
2022-10-15T02:44:52.117Z,977.20
2022-10-15T02:45:52.089Z,977.19
2022-10-15T02:46:52.079Z,977.20
2022-10-15T02:47:52.078Z,977.21
2022-10-15T02:48:52.084Z,977.24
2022-10-15T02:49:52.067Z,977.18
2022-10-15T02:50:52.030Z,977.21
2022-10-15T02:51:52.039Z,977.20
2022-10-15T02:52:52.038Z,977.21
2022-10-15T02:53:52.025Z,977.19
2022-10-15T02:54:52.009Z,977.22
2022-10-15T02:55:52.013Z,977.33
2022-10-15T02:56:52.000Z,977.19
2022-10-15T02:57:51.990Z,977.19
2022-10-15T02:58:51.947Z,977.25
2022-10-15T02:59:51.951Z,977.21
2022-10-15T03:00:51.947Z,977.24
2022-10-15T03:01:51.920Z,977.18
2022-10-15T03:02:51.921Z,977.23
2022-10-15T03:03:51.924Z,977.25
2022-10-15T03:04:51.912Z,977.29
2022-10-15T03:05:51.891Z,977.26
2022-10-15T03:06:51.871Z,977.29
2022-10-15T03:07:51.863Z,977.27
2022-10-15T03:08:51.872Z,977.29
2022-10-15T03:09:51.842Z,977.25
2022-10-15T03:10:51.832Z,977.29
2022-10-15T03:11:51.811Z,977.34
2022-10-15T03:12:51.813Z,977.30
2022-10-15T03:13:51.791Z,977.30
2022-10-15T03:14:51.793Z,977.37
2022-10-15T03:15:51.783Z,977.29
2022-10-15T03:16:51.764Z,977.29
2022-10-15T03:17:51.753Z,977.31
2022-10-15T03:18:51.754Z,977.26
2022-10-15T03:19:51.742Z,977.23
2022-10-15T03:20:51.734Z,977.25
2022-10-15T03:21:51.725Z,977.30
2022-10-15T03:22:51.726Z,977.25
2022-10-15T03:23:51.695Z,977.28
2022-10-15T03:24:51.683Z,977.27
2022-10-15T03:25:51.666Z,977.30
2022-10-15T03:26:51.678Z,977.26
2022-10-15T03:27:51.656Z,977.28
2022-10-15T03:28:51.666Z,977.30
2022-10-15T03:29:51.624Z,977.29
2022-10-15T03:30:51.627Z,977.26
2022-10-15T03:31:51.610Z,977.31
2022-10-15T03:32:51.588Z,977.28
2022-10-15T03:33:51.592Z,977.31
2022-10-15T03:34:51.567Z,977.29
2022-10-15T03:35:51.568Z,977.28
2022-10-15T03:36:51.558Z,977.32
2022-10-15T03:37:51.559Z,977.32
2022-10-15T03:38:51.530Z,977.30
2022-10-15T03:39:51.519Z,977.36
2022-10-15T03:40:51.509Z,977.34
2022-10-15T03:41:51.502Z,977.38
2022-10-15T03:42:51.504Z,977.36
2022-10-15T03:43:51.492Z,977.39
2022-10-15T03:44:51.471Z,977.37
2022-10-15T03:45:51.462Z,977.32
2022-10-15T03:46:51.430Z,977.42
2022-10-15T03:47:51.442Z,977.38
2022-10-15T03:48:51.442Z,977.41
2022-10-15T03:49:51.421Z,977.38
2022-10-15T03:50:51.397Z,977.42
2022-10-15T03:51:51.401Z,977.45
2022-10-15T03:52:51.392Z,977.46
2022-10-15T03:53:51.376Z,977.46
2022-10-15T03:54:51.383Z,977.47
2022-10-15T03:55:51.372Z,977.52
2022-10-15T03:56:51.342Z,977.50
2022-10-15T03:57:51.373Z,977.53
2022-10-15T03:58:51.308Z,977.60
2022-10-15T03:59:51.314Z,977.60
2022-10-15T04:00:51.338Z,977.62
2022-10-15T04:01:51.284Z,977.60
2022-10-15T04:02:51.288Z,977.67
2022-10-15T04:03:51.254Z,977.66
2022-10-15T04:04:51.234Z,977.66
2022-10-15T04:05:53.848Z,977.62
2022-10-15T04:06:51.225Z,977.64
2022-10-15T04:07:51.234Z,977.69
2022-10-15T04:09:51.187Z,977.64
2022-10-15T04:10:51.186Z,977.60
2022-10-15T04:11:51.175Z,977.59
2022-10-15T04:12:51.153Z,977.59
2022-10-15T04:13:51.171Z,977.59
2022-10-15T04:14:51.146Z,977.57
2022-10-15T04:15:51.125Z,977.61
2022-10-15T04:16:51.106Z,977.68
2022-10-15T04:17:54.218Z,977.69
2022-10-15T04:18:51.086Z,977.62
2022-10-15T04:19:51.078Z,977.71
2022-10-15T04:20:51.066Z,977.68
2022-10-15T04:21:51.076Z,977.67
2022-10-15T04:22:51.079Z,977.71
2022-10-15T04:23:51.049Z,977.70
2022-10-15T04:24:51.040Z,977.67
2022-10-15T04:25:51.010Z,977.72
2022-10-15T04:26:51.010Z,977.76
2022-10-15T04:27:51.010Z,977.73
2022-10-15T04:28:51.039Z,977.76
2022-10-15T04:29:50.979Z,977.77
2022-10-15T04:30:50.970Z,977.80
2022-10-15T04:31:50.972Z,977.84
2022-10-15T04:32:50.942Z,977.81
2022-10-15T04:33:50.943Z,977.86
2022-10-15T04:34:50.952Z,977.86
2022-10-15T04:35:50.912Z,977.83
2022-10-15T04:36:50.921Z,977.81
2022-10-15T04:37:50.889Z,977.83
2022-10-15T04:38:50.891Z,977.77
2022-10-15T04:39:50.883Z,977.80
2022-10-15T04:40:50.872Z,977.80
2022-10-15T04:41:50.862Z,977.85
2022-10-15T04:42:50.850Z,977.84
2022-10-15T04:43:50.844Z,977.79
2022-10-15T04:44:50.812Z,977.84
2022-10-15T04:45:50.816Z,977.82
2022-10-15T04:46:50.804Z,977.80
2022-10-15T04:47:50.803Z,977.79
2022-10-15T04:48:50.765Z,977.81
2022-10-15T04:49:50.775Z,977.85
2022-10-15T04:50:50.753Z,977.83
2022-10-15T04:51:50.745Z,977.87
2022-10-15T04:52:50.736Z,977.85
2022-10-15T04:53:50.734Z,977.87
2022-10-15T04:54:50.713Z,977.86
2022-10-15T04:55:50.707Z,977.86
2022-10-15T04:56:50.697Z,977.91
2022-10-15T04:57:50.676Z,977.93
2022-10-15T04:58:50.658Z,977.96
2022-10-15T04:59:53.906Z,977.98
2022-10-15T05:00:51.643Z,978.01
2022-10-15T05:01:50.679Z,978.02
2022-10-15T05:02:50.638Z,978.03
2022-10-15T05:03:50.608Z,977.98
2022-10-15T05:04:50.608Z,978.02
2022-10-15T05:05:50.589Z,978.02
2022-10-15T05:06:50.580Z,978.00
2022-10-15T05:07:50.585Z,977.99
2022-10-15T05:08:50.568Z,978.00
2022-10-15T05:09:50.571Z,978.02
2022-10-15T05:10:50.540Z,977.94
2022-10-15T05:11:50.531Z,977.95
2022-10-15T05:12:54.109Z,977.98
2022-10-15T05:13:51.513Z,978.04
2022-10-15T05:14:50.505Z,978.03
2022-10-15T05:15:50.501Z,978.02
2022-10-15T05:16:50.480Z,978.09
2022-10-15T05:17:50.503Z,978.12
2022-10-15T05:18:50.452Z,978.15
2022-10-15T05:19:50.440Z,978.12
2022-10-15T05:20:50.423Z,978.08
2022-10-15T05:21:50.454Z,978.11
2022-10-15T05:22:50.412Z,978.12
2022-10-15T05:23:50.413Z,978.18
2022-10-15T05:24:50.382Z,978.16
2022-10-15T05:25:53.207Z,978.22
2022-10-15T05:26:50.374Z,978.21
2022-10-15T05:27:50.373Z,978.20
2022-10-15T05:28:50.432Z,978.27
2022-10-15T05:29:50.332Z,978.24
2022-10-15T05:30:50.336Z,978.30
2022-10-15T05:31:50.325Z,978.23
2022-10-15T05:32:50.315Z,978.26
2022-10-15T05:33:50.285Z,978.27
2022-10-15T05:34:50.275Z,978.28
2022-10-15T05:35:50.284Z,978.28
2022-10-15T05:36:50.274Z,978.33
2022-10-15T05:37:50.276Z,978.32
2022-10-15T05:38:50.235Z,978.32
2022-10-15T05:39:50.256Z,978.34
2022-10-15T05:40:50.250Z,978.33
2022-10-15T05:41:50.227Z,978.34
2022-10-15T05:42:50.224Z,978.31
2022-10-15T05:43:50.179Z,978.36
2022-10-15T05:44:50.184Z,978.37
2022-10-15T05:45:50.179Z,978.45
2022-10-15T05:46:50.180Z,978.49
2022-10-15T05:47:50.140Z,978.51
2022-10-15T05:48:50.141Z,978.46
2022-10-15T05:49:50.139Z,978.44
2022-10-15T05:50:50.119Z,978.41
2022-10-15T05:51:50.163Z,978.44
2022-10-15T05:52:50.104Z,978.42
2022-10-15T05:53:50.080Z,978.44
2022-10-15T05:54:50.080Z,978.35
2022-10-15T05:55:50.080Z,978.33
2022-10-15T05:56:50.051Z,978.38
2022-10-15T05:57:50.049Z,978.38
2022-10-15T05:58:50.049Z,978.43
2022-10-15T05:59:50.025Z,978.38
2022-10-15T06:00:50.021Z,978.48
2022-10-15T06:01:50.037Z,978.51
2022-10-15T06:02:50.163Z,978.51
2022-10-15T06:03:49.973Z,978.53
2022-10-15T06:04:49.962Z,978.56
2022-10-15T06:05:49.961Z,978.62
2022-10-15T06:06:49.981Z,978.57
2022-10-15T06:07:49.923Z,978.61
2022-10-15T06:08:49.906Z,978.59
2022-10-15T06:09:49.914Z,978.64
2022-10-15T06:10:49.893Z,978.63
2022-10-15T06:11:49.886Z,978.69
2022-10-15T06:12:49.864Z,978.62
2022-10-15T06:13:49.862Z,978.71
2022-10-15T06:14:49.844Z,978.75
2022-10-15T06:15:49.856Z,978.76
2022-10-15T06:16:49.836Z,978.73
2022-10-15T06:17:49.823Z,978.69
2022-10-15T06:18:49.814Z,978.78
2022-10-15T06:19:49.804Z,978.80
2022-10-15T06:20:49.786Z,978.85
2022-10-15T06:21:49.787Z,978.86
2022-10-15T06:22:49.765Z,978.81
2022-10-15T06:23:49.777Z,978.84
2022-10-15T06:24:49.757Z,978.86
2022-10-15T06:25:49.737Z,978.91
2022-10-15T06:26:49.718Z,978.98
2022-10-15T06:27:49.718Z,979.02
2022-10-15T06:28:49.786Z,978.89
2022-10-15T06:29:49.687Z,978.98
2022-10-15T06:30:49.698Z,978.97
2022-10-15T06:31:49.668Z,979.02
2022-10-15T06:32:49.655Z,978.98
2022-10-15T06:33:49.649Z,979.00
2022-10-15T06:34:49.940Z,978.99
2022-10-15T06:35:49.649Z,979.04
2022-10-15T06:36:49.609Z,979.11
2022-10-15T06:37:49.612Z,979.06
2022-10-15T06:38:49.612Z,979.14
2022-10-15T06:39:49.590Z,979.09
2022-10-15T06:40:49.582Z,979.20
2022-10-15T06:41:49.581Z,979.23
2022-10-15T06:42:49.562Z,979.25
2022-10-15T06:43:49.588Z,979.29
2022-10-15T06:44:49.541Z,979.36
2022-10-15T06:45:49.541Z,979.32
2022-10-15T06:46:49.503Z,979.33
2022-10-15T06:47:49.522Z,979.31
2022-10-15T06:48:49.502Z,979.33
2022-10-15T06:49:49.473Z,979.29
2022-10-15T06:50:49.462Z,979.33
2022-10-15T06:51:49.488Z,979.26
2022-10-15T06:52:49.522Z,979.30
2022-10-15T06:53:49.423Z,979.38
2022-10-15T06:54:49.424Z,979.39
2022-10-15T06:55:49.417Z,979.38
2022-10-15T06:56:49.425Z,979.37
2022-10-15T06:57:49.395Z,979.40
2022-10-15T06:58:49.384Z,979.39
2022-10-15T06:59:49.366Z,979.42
2022-10-15T07:00:49.366Z,979.45
2022-10-15T07:01:49.346Z,979.41
2022-10-15T07:02:49.345Z,979.45
2022-10-15T07:03:49.336Z,979.46
2022-10-15T07:04:49.346Z,979.51
2022-10-15T07:05:49.305Z,979.53
2022-10-15T07:06:49.306Z,979.57
2022-10-15T07:07:49.295Z,979.56
2022-10-15T07:08:49.286Z,979.58
2022-10-15T07:09:49.288Z,979.62
2022-10-15T07:10:49.258Z,979.64
2022-10-15T07:11:49.264Z,979.63
2022-10-15T07:12:49.258Z,979.64
2022-10-15T07:13:49.219Z,979.66
2022-10-15T07:14:49.230Z,979.69
2022-10-15T07:15:49.228Z,979.71
2022-10-15T07:16:49.189Z,979.68
2022-10-15T07:17:49.194Z,979.72
2022-10-15T07:18:49.199Z,979.74
2022-10-15T07:19:49.170Z,979.72
2022-10-15T07:20:49.190Z,979.75
2022-10-15T07:21:49.169Z,979.78
2022-10-15T07:22:49.140Z,979.76
2022-10-15T07:23:49.120Z,979.75
2022-10-15T07:24:49.111Z,979.75
2022-10-15T07:25:49.091Z,979.78
2022-10-15T07:26:49.118Z,979.81
2022-10-15T07:27:49.072Z,979.81
2022-10-15T07:28:49.153Z,979.79
2022-10-15T07:29:49.063Z,979.76
2022-10-15T07:30:49.067Z,979.76
2022-10-15T07:31:49.031Z,979.79
2022-10-15T07:32:50.299Z,979.80
2022-10-15T07:33:49.040Z,979.82
2022-10-15T07:34:49.002Z,979.80
2022-10-15T07:35:49.008Z,979.82
2022-10-15T07:36:48.995Z,979.84
2022-10-15T07:37:48.963Z,979.89
2022-10-15T07:38:49.223Z,979.93
2022-10-15T07:39:48.954Z,979.89
2022-10-15T07:40:48.949Z,979.93
2022-10-15T07:41:48.936Z,979.93
2022-10-15T07:42:48.945Z,979.92
2022-10-15T07:43:48.925Z,979.94
2022-10-15T07:44:48.908Z,979.96
2022-10-15T07:45:48.876Z,979.99
2022-10-15T07:46:48.915Z,980.02
2022-10-15T07:47:48.866Z,979.97
2022-10-15T07:48:48.859Z,979.93
2022-10-15T07:49:48.836Z,980.00
2022-10-15T07:50:48.838Z,979.97
2022-10-15T07:51:48.828Z,979.97
2022-10-15T07:52:48.816Z,979.97
2022-10-15T07:53:48.808Z,980.00
2022-10-15T07:54:48.789Z,979.98
2022-10-15T07:55:48.788Z,980.04
2022-10-15T07:56:48.790Z,980.09
2022-10-15T07:57:48.771Z,980.12
2022-10-15T07:58:48.766Z,980.07
2022-10-15T07:59:48.730Z,980.07
2022-10-15T08:00:48.737Z,980.10
2022-10-15T08:01:50.659Z,980.17
2022-10-15T08:02:48.728Z,980.08
2022-10-15T08:03:48.698Z,980.13
2022-10-15T08:04:48.690Z,980.17
2022-10-15T08:05:48.701Z,980.21
2022-10-15T08:06:48.680Z,980.25
2022-10-15T08:07:48.651Z,980.23
2022-10-15T08:08:48.643Z,980.25
2022-10-15T08:09:48.638Z,980.23
2022-10-15T08:10:48.646Z,980.19
2022-10-15T08:11:48.613Z,980.31
2022-10-15T08:12:48.629Z,980.31
2022-10-15T08:13:48.603Z,980.33
2022-10-15T08:14:48.601Z,980.28
2022-10-15T08:15:48.564Z,980.27
2022-10-15T08:16:48.561Z,980.19
2022-10-15T08:17:48.551Z,980.25
2022-10-15T08:18:48.632Z,980.25
2022-10-15T08:19:48.514Z,980.20
2022-10-15T08:20:48.525Z,980.22
2022-10-15T08:21:48.496Z,980.12
2022-10-15T08:22:48.496Z,980.20
2022-10-15T08:23:48.522Z,980.22
2022-10-15T08:24:48.494Z,980.21
2022-10-15T08:25:48.454Z,980.16
2022-10-15T08:26:48.446Z,980.13
2022-10-15T08:27:48.436Z,980.19
2022-10-15T08:28:48.508Z,980.13
2022-10-15T08:29:48.417Z,980.15
2022-10-15T08:30:48.408Z,980.13
2022-10-15T08:31:48.428Z,980.15
2022-10-15T08:32:48.398Z,980.23
2022-10-15T08:33:48.387Z,980.22
2022-10-15T08:34:48.380Z,980.14
2022-10-15T08:35:48.366Z,980.12
2022-10-15T08:36:48.378Z,980.12
2022-10-15T08:37:48.338Z,980.15
2022-10-15T08:38:48.329Z,980.09
2022-10-15T08:39:48.318Z,980.14
2022-10-15T08:40:48.298Z,980.13
2022-10-15T08:41:48.320Z,980.15
2022-10-15T08:42:48.299Z,980.16
2022-10-15T08:43:48.291Z,980.17
2022-10-15T08:44:48.262Z,980.15
2022-10-15T08:45:48.253Z,980.23
2022-10-15T08:46:48.262Z,980.19
2022-10-15T08:47:48.220Z,980.19
2022-10-15T08:48:48.212Z,980.23
2022-10-15T08:49:48.231Z,980.23
2022-10-15T08:50:50.427Z,980.27
2022-10-15T08:51:49.172Z,980.30
2022-10-15T08:52:48.162Z,980.29
2022-10-15T08:53:48.190Z,980.29
2022-10-15T08:54:48.163Z,980.30
2022-10-15T08:55:48.143Z,980.29
2022-10-15T08:56:48.132Z,980.34
2022-10-15T08:57:48.106Z,980.24
2022-10-15T08:58:48.125Z,980.27
2022-10-15T08:59:48.085Z,980.26
2022-10-15T09:00:48.104Z,980.30
2022-10-15T09:01:48.094Z,980.20
2022-10-15T09:02:48.124Z,980.24
2022-10-15T09:03:48.067Z,980.25
2022-10-15T09:04:48.085Z,980.23
2022-10-15T09:05:48.035Z,980.27
2022-10-15T09:06:48.027Z,980.29
2022-10-15T09:07:50.875Z,980.24
2022-10-15T09:08:48.995Z,980.24
2022-10-15T09:09:47.978Z,980.26
2022-10-15T09:10:48.009Z,980.24
2022-10-15T09:11:47.957Z,980.28
2022-10-15T09:12:47.988Z,980.27
2022-10-15T09:13:47.946Z,980.27
2022-10-15T09:14:47.947Z,980.27
2022-10-15T09:15:47.927Z,980.25
2022-10-15T09:16:47.919Z,980.29
2022-10-15T09:17:47.889Z,980.29
2022-10-15T09:18:47.931Z,980.30
2022-10-15T09:19:47.899Z,980.32
2022-10-15T09:20:47.870Z,980.32
2022-10-15T09:21:47.854Z,980.30
2022-10-15T09:23:47.870Z,980.34
2022-10-15T09:24:47.851Z,980.33
2022-10-15T09:25:47.821Z,980.31
2022-10-15T09:26:48.105Z,980.32
2022-10-15T09:27:47.781Z,980.38
2022-10-15T09:28:47.855Z,980.33
2022-10-15T09:29:47.776Z,980.36
2022-10-15T09:30:47.770Z,980.36
2022-10-15T09:31:47.827Z,980.43
2022-10-15T09:32:50.623Z,980.39
2022-10-15T09:33:48.741Z,980.48
2022-10-15T09:34:47.738Z,980.47
2022-10-15T09:35:47.722Z,980.47
2022-10-15T09:36:47.693Z,980.43
2022-10-15T09:37:47.683Z,980.46
2022-10-15T09:38:47.685Z,980.47
2022-10-15T09:39:47.654Z,980.46
2022-10-15T09:40:47.694Z,980.50
2022-10-15T09:41:47.645Z,980.41
2022-10-15T09:42:47.636Z,980.47
2022-10-15T09:43:47.648Z,980.52
2022-10-15T09:44:47.617Z,980.52
2022-10-15T09:45:47.607Z,980.51
2022-10-15T09:46:47.607Z,980.55
2022-10-15T09:47:47.617Z,980.54
2022-10-15T09:48:47.567Z,980.52
2022-10-15T09:49:47.548Z,980.51
2022-10-15T09:50:47.567Z,980.52
2022-10-15T09:51:47.526Z,980.56
2022-10-15T09:52:47.518Z,980.55
2022-10-15T09:53:47.548Z,980.51
2022-10-15T09:54:47.500Z,980.52
2022-10-15T09:55:47.479Z,980.57
2022-10-15T09:56:47.478Z,980.55
2022-10-15T09:57:47.469Z,980.56
2022-10-15T09:58:47.480Z,980.54
2022-10-15T09:59:47.450Z,980.46
2022-10-15T10:00:47.480Z,980.51
2022-10-15T10:01:47.439Z,980.54
2022-10-15T10:02:47.434Z,980.54
2022-10-15T10:03:47.420Z,980.56
2022-10-15T10:04:47.401Z,980.56
2022-10-15T10:05:47.391Z,980.59
2022-10-15T10:06:47.409Z,980.58
2022-10-15T10:07:47.352Z,980.64
2022-10-15T10:09:47.351Z,980.60
2022-10-15T10:10:47.353Z,980.53
2022-10-15T10:11:47.323Z,980.54
2022-10-15T10:12:47.303Z,980.53
2022-10-15T10:13:47.294Z,980.57
2022-10-15T10:14:47.283Z,980.54
2022-10-15T10:15:47.290Z,980.51
2022-10-15T10:16:47.295Z,980.54
2022-10-15T10:17:47.287Z,980.52
2022-10-15T10:18:47.236Z,980.52
2022-10-15T10:19:47.225Z,980.58
2022-10-15T10:20:47.222Z,980.64
2022-10-15T10:21:47.236Z,980.55
2022-10-15T10:22:50.434Z,980.59
2022-10-15T10:23:47.205Z,980.58
2022-10-15T10:24:47.180Z,980.67
2022-10-15T10:25:47.197Z,980.63
2022-10-15T10:26:47.174Z,980.67
2022-10-15T10:27:47.137Z,980.67
2022-10-15T10:28:47.221Z,980.74
2022-10-15T10:29:47.193Z,980.68
2022-10-15T10:30:47.108Z,980.60
2022-10-15T10:31:47.120Z,980.72
2022-10-15T10:32:47.110Z,980.62
2022-10-15T10:33:47.099Z,980.61
2022-10-15T10:34:52.274Z,980.64
2022-10-15T10:35:48.068Z,980.62
2022-10-15T10:36:47.091Z,980.65
2022-10-15T10:37:47.049Z,980.60
2022-10-15T10:38:47.048Z,980.63
2022-10-15T10:39:47.029Z,980.55
2022-10-15T10:40:47.020Z,980.58
2022-10-15T10:41:47.010Z,980.59
2022-10-15T10:42:47.002Z,980.60
2022-10-15T10:43:47.000Z,980.69
2022-10-15T10:44:46.980Z,980.72
2022-10-15T10:45:50.065Z,980.72
2022-10-15T10:46:46.953Z,980.69
2022-10-15T10:47:46.923Z,980.68
2022-10-15T10:48:46.953Z,980.74
2022-10-15T10:49:46.915Z,980.77
2022-10-15T10:50:46.914Z,980.81
2022-10-15T10:51:46.905Z,980.64
2022-10-15T10:52:46.875Z,980.71
2022-10-15T10:53:46.886Z,980.78
2022-10-15T10:54:46.866Z,980.65
2022-10-15T10:55:46.835Z,980.70
2022-10-15T10:56:46.857Z,980.67
2022-10-15T10:57:46.823Z,980.71
2022-10-15T10:58:46.846Z,980.72
2022-10-15T10:59:46.814Z,980.67
2022-10-15T11:00:46.849Z,980.70
2022-10-15T11:01:46.776Z,980.66
2022-10-15T11:02:47.317Z,980.63
2022-10-15T11:03:47.077Z,980.66
2022-10-15T11:04:46.748Z,980.61
2022-10-15T11:05:46.755Z,980.65
2022-10-15T11:06:46.749Z,980.66
2022-10-15T11:07:46.720Z,980.66
2022-10-15T11:08:46.706Z,980.68
2022-10-15T11:09:46.732Z,980.68
2022-10-15T11:10:46.690Z,980.68
2022-10-15T11:11:46.687Z,980.61
2022-10-15T11:12:46.672Z,980.64
2022-10-15T11:13:46.660Z,980.75
2022-10-15T11:14:46.671Z,980.67
2022-10-15T11:15:46.645Z,980.66
2022-10-15T11:16:46.631Z,980.64
2022-10-15T11:17:46.631Z,980.63
2022-10-15T11:18:46.612Z,980.62
2022-10-15T11:20:57.721Z,980.66
2022-10-15T11:21:47.564Z,980.57
2022-10-15T11:22:46.574Z,980.54
2022-10-15T11:23:46.570Z,980.52
2022-10-15T11:24:49.084Z,980.59
2022-10-15T11:25:46.526Z,980.55
2022-10-15T11:26:59.168Z,980.62
2022-10-15T11:27:47.544Z,980.57
2022-10-15T11:28:46.584Z,980.54
2022-10-15T11:29:46.517Z,980.42
2022-10-15T11:30:46.507Z,980.56
2022-10-15T11:32:01.657Z,980.48
2022-10-15T11:33:06.090Z,980.51
2022-10-15T11:33:47.445Z,980.48
2022-10-15T11:34:46.428Z,980.48
2022-10-15T11:35:53.395Z,980.47
2022-10-15T11:36:47.418Z,980.45
2022-10-15T11:37:46.407Z,980.48
2022-10-15T11:38:46.385Z,980.46
2022-10-15T11:39:46.380Z,980.49
2022-10-15T11:40:46.427Z,980.44
2022-10-15T11:41:46.419Z,980.46
2022-10-15T11:42:46.351Z,980.49
2022-10-15T11:43:46.350Z,980.48
2022-10-15T11:44:46.319Z,980.46
2022-10-15T11:45:46.311Z,980.41
2022-10-15T11:46:46.808Z,980.42
2022-10-15T11:47:46.291Z,980.44
2022-10-15T11:48:46.352Z,980.43
2022-10-15T11:49:46.293Z,980.45
2022-10-15T11:50:46.271Z,980.47
2022-10-15T11:51:46.263Z,980.38
2022-10-15T11:52:46.244Z,980.27
2022-10-15T11:53:46.246Z,980.20
2022-10-15T11:54:46.214Z,980.28
2022-10-15T11:55:46.213Z,980.18
2022-10-15T11:56:46.204Z,980.26
2022-10-15T11:57:46.193Z,980.19
2022-10-15T11:58:46.210Z,980.15
2022-10-15T11:59:46.316Z,980.31
2022-10-15T12:00:46.168Z,980.32
2022-10-15T12:01:46.164Z,980.31
2022-10-15T12:02:46.125Z,980.13
2022-10-15T12:03:46.164Z,980.13
2022-10-15T12:04:46.145Z,980.12
2022-10-15T12:05:46.107Z,980.05
2022-10-15T12:06:46.098Z,980.13
2022-10-15T12:07:46.115Z,980.14
2022-10-15T12:08:46.086Z,980.08
2022-10-15T12:09:46.068Z,980.26
2022-10-15T12:10:46.059Z,980.03
2022-10-15T12:11:46.038Z,980.20
2022-10-15T12:12:46.043Z,980.11
2022-10-15T12:13:46.030Z,980.09
2022-10-15T12:14:46.030Z,980.19
2022-10-15T12:15:46.001Z,980.20
2022-10-15T12:16:46.091Z,980.18
2022-10-15T12:17:45.991Z,980.16
2022-10-15T12:18:45.971Z,980.05
2022-10-15T12:19:45.962Z,980.04
2022-10-15T12:20:45.954Z,980.01
2022-10-15T12:21:45.943Z,980.19
2022-10-15T12:22:45.953Z,980.10
2022-10-15T12:23:45.924Z,980.01
2022-10-15T12:24:45.894Z,980.05
2022-10-15T12:25:45.894Z,980.15
2022-10-15T12:26:45.895Z,980.03
2022-10-15T12:27:45.875Z,980.06
2022-10-15T12:28:45.909Z,980.09
2022-10-15T12:29:45.856Z,980.12
2022-10-15T12:30:45.845Z,980.15
2022-10-15T12:31:45.837Z,980.16
2022-10-15T12:32:45.827Z,980.17